createdAt,value
2019-03-03T00:01:24.701Z,100494.89
2019-03-03T00:03:54.521Z,100487.04
2019-03-03T00:06:24.116Z,100488.25
2019-03-03T00:08:55.114Z,100483.14
2019-03-03T00:11:24.629Z,100486.56
2019-03-03T00:13:54.221Z,100484.78
2019-03-03T00:16:25.419Z,100477.45
2019-03-03T00:18:54.856Z,100486.95
2019-03-03T00:21:25.649Z,100485.22
2019-03-03T00:23:55.174Z,100485.52
2019-03-03T00:26:25.063Z,100486.87
2019-03-03T00:28:54.500Z,100488.37
2019-03-03T00:31:35.977Z,100486.50
2019-03-03T00:34:05.624Z,100484.53
2019-03-03T00:36:55.461Z,100479.13
2019-03-03T00:39:42.009Z,100486.62
2019-03-03T00:42:25.142Z,100480.69
2019-03-03T00:45:06.925Z,100482.81
2019-03-03T00:47:54.262Z,100484.63
2019-03-03T00:50:27.864Z,100484.44
2019-03-03T00:52:58.910Z,100480.38
2019-03-03T00:55:30.058Z,100473.52
2019-03-03T00:58:15.108Z,100469.70
2019-03-03T01:00:46.325Z,100480.35
2019-03-03T01:03:17.530Z,100470.79
2019-03-03T01:06:03.834Z,100478.12
2019-03-03T01:08:40.924Z,100470.38
2019-03-03T01:11:16.330Z,100461.00
2019-03-03T01:13:55.795Z,100466.63
2019-03-03T01:16:32.036Z,100466.21
2019-03-03T01:19:07.131Z,100463.98
2019-03-03T01:21:56.634Z,100464.73
2019-03-03T01:24:45.837Z,100463.48
2019-03-03T01:27:15.798Z,100476.69
2019-03-03T01:29:45.244Z,100461.73
2019-03-03T01:32:14.668Z,100470.00
2019-03-03T01:34:47.334Z,100463.38
2019-03-03T01:37:17.001Z,100458.59
2019-03-03T01:39:46.527Z,100447.84
2019-03-03T01:42:16.027Z,100441.22
2019-03-03T01:44:45.529Z,100433.45
2019-03-03T01:47:14.945Z,100434.38
2019-03-03T01:49:44.376Z,100429.91
2019-03-03T01:52:14.669Z,100437.20
2019-03-03T01:54:44.178Z,100431.23
2019-03-03T01:57:13.595Z,100430.51
2019-03-03T01:59:43.111Z,100437.03
2019-03-03T02:02:12.531Z,100429.09
2019-03-03T02:04:41.966Z,100434.55
2019-03-03T02:07:11.473Z,100429.20
2019-03-03T02:09:40.951Z,100427.30
2019-03-03T02:12:10.459Z,100416.40
2019-03-03T02:14:40.012Z,100413.41
2019-03-03T02:17:09.994Z,100398.30
2019-03-03T02:19:39.447Z,100390.05
2019-03-03T02:22:08.959Z,100392.17
2019-03-03T02:24:38.379Z,100383.55
2019-03-03T02:27:07.809Z,100380.94
2019-03-03T02:29:37.369Z,100373.09
2019-03-03T02:32:06.993Z,100370.72
2019-03-03T02:34:36.405Z,100361.70
2019-03-03T02:37:05.921Z,100363.99
2019-03-03T02:39:35.412Z,100367.62
2019-03-03T02:42:04.907Z,100359.91
2019-03-03T02:44:34.492Z,100351.17
2019-03-03T02:47:03.979Z,100346.07
2019-03-03T02:49:33.419Z,100349.48
2019-03-03T02:52:02.903Z,100339.23
2019-03-03T02:54:32.321Z,100342.76
2019-03-03T02:57:01.772Z,100326.70
2019-03-03T02:59:31.214Z,100320.08
2019-03-03T03:02:01.513Z,100319.30
2019-03-03T03:04:31.032Z,100318.87
2019-03-03T03:07:02.150Z,100321.70
2019-03-03T03:09:33.183Z,100322.90
2019-03-03T03:12:12.721Z,100338.69
2019-03-03T03:14:52.943Z,100330.66
2019-03-03T03:17:27.302Z,100331.03
2019-03-03T03:19:58.365Z,100319.34
2019-03-03T03:22:38.705Z,100320.94
2019-03-03T03:25:16.093Z,100315.67
2019-03-03T03:27:47.253Z,100303.87
2019-03-03T03:30:27.417Z,100305.50
2019-03-03T03:33:02.040Z,100293.22
2019-03-03T03:35:41.328Z,100290.87
2019-03-03T03:38:14.925Z,100288.70
2019-03-03T03:40:45.989Z,100284.29
2019-03-03T03:43:17.072Z,100287.65
2019-03-03T03:45:48.145Z,100267.53
2019-03-03T03:48:21.992Z,100267.67
2019-03-03T03:50:58.873Z,100258.05
2019-03-03T03:53:32.905Z,100258.11
2019-03-03T03:56:04.124Z,100264.07
2019-03-03T03:58:35.312Z,100258.41
2019-03-03T04:01:13.388Z,100249.73
2019-03-03T04:03:44.781Z,100245.07
2019-03-03T04:06:18.956Z,100236.36
2019-03-03T04:08:50.545Z,100232.45
2019-03-03T04:11:24.571Z,100228.54
2019-03-03T04:13:58.594Z,100231.98
2019-03-03T04:16:29.644Z,100233.14
2019-03-03T04:19:00.729Z,100236.80
2019-03-03T04:21:34.233Z,100233.76
2019-03-03T04:24:14.244Z,100233.52
2019-03-03T04:26:45.307Z,100227.80
2019-03-03T04:29:22.311Z,100227.37
2019-03-03T04:31:53.370Z,100228.20
2019-03-03T04:34:33.661Z,100216.58
2019-03-03T04:37:19.720Z,100214.20
2019-03-03T04:39:50.787Z,100209.87
2019-03-03T04:42:33.899Z,100200.55
2019-03-03T04:45:05.820Z,100198.30
2019-03-03T04:47:36.880Z,100205.83
2019-03-03T04:50:27.719Z,100194.89
2019-03-03T04:53:01.824Z,100198.09
2019-03-03T04:55:39.092Z,100195.72
2019-03-03T04:58:16.345Z,100193.80
2019-03-03T05:00:53.190Z,100183.03
2019-03-03T05:03:30.477Z,100180.37
2019-03-03T05:06:01.538Z,100186.09
2019-03-03T05:08:32.627Z,100179.92
2019-03-03T05:11:03.699Z,100181.14
2019-03-03T05:13:34.756Z,100175.09
2019-03-03T05:16:21.245Z,100168.56
2019-03-03T05:18:58.110Z,100177.06
2019-03-03T05:21:28.742Z,100166.51
2019-03-03T05:23:59.212Z,100167.98
2019-03-03T05:26:28.719Z,100167.52
2019-03-03T05:28:58.143Z,100147.38
2019-03-03T05:31:29.381Z,100154.77
2019-03-03T05:33:58.879Z,100159.23
2019-03-03T05:36:28.322Z,100153.95
2019-03-03T05:38:57.746Z,100144.75
2019-03-03T05:41:27.178Z,100152.07
2019-03-03T05:43:56.676Z,100145.33
2019-03-03T05:46:26.099Z,100152.23
2019-03-03T05:48:55.529Z,100142.84
2019-03-03T05:51:24.948Z,100149.30
2019-03-03T05:53:54.651Z,100136.19
2019-03-03T05:56:24.063Z,100126.55
2019-03-03T05:58:53.801Z,100136.00
2019-03-03T06:01:23.222Z,100149.56
2019-03-03T06:03:52.715Z,100135.27
2019-03-03T06:06:22.119Z,100128.48
2019-03-03T06:08:51.614Z,100127.11
2019-03-03T06:11:21.056Z,100129.56
2019-03-03T06:13:50.473Z,100129.56
2019-03-03T06:16:19.916Z,100125.42
2019-03-03T06:18:49.355Z,100113.16
2019-03-03T06:21:21.503Z,100125.14
2019-03-03T06:23:51.015Z,100127.38
2019-03-03T06:26:20.432Z,100131.44
2019-03-03T06:28:49.897Z,100127.11
2019-03-03T06:31:19.301Z,100123.06
2019-03-03T06:33:48.819Z,100125.67
2019-03-03T06:36:18.246Z,100116.03
2019-03-03T06:38:47.675Z,100120.87
2019-03-03T06:41:17.136Z,100112.84
2019-03-03T06:43:46.617Z,100110.88
2019-03-03T06:46:16.063Z,100111.08
2019-03-03T06:48:45.484Z,100111.98
2019-03-03T06:51:14.932Z,100111.02
2019-03-03T06:53:44.345Z,100111.53
2019-03-03T06:56:13.790Z,100109.91
2019-03-03T06:58:43.204Z,100108.33
2019-03-03T07:01:12.634Z,100108.45
2019-03-03T07:03:42.068Z,100114.41
2019-03-03T07:06:11.499Z,100113.39
2019-03-03T07:08:41.040Z,100108.55
2019-03-03T07:11:10.453Z,100116.35
2019-03-03T07:13:39.889Z,100116.86
2019-03-03T07:16:09.315Z,100114.95
2019-03-03T07:18:38.762Z,100104.87
2019-03-03T07:21:08.264Z,100114.74
2019-03-03T07:23:37.722Z,100131.20
2019-03-03T07:26:07.141Z,100139.19
2019-03-03T07:28:36.652Z,100141.25
2019-03-03T07:31:06.141Z,100136.22
2019-03-03T07:33:35.565Z,100132.88
2019-03-03T07:36:05.048Z,100136.21
2019-03-03T07:38:34.485Z,100136.23
2019-03-03T07:41:03.984Z,100138.31
2019-03-03T07:43:34.565Z,100147.95
2019-03-03T07:46:04.153Z,100148.45
2019-03-03T07:48:33.592Z,100146.14
2019-03-03T07:51:03.021Z,100141.46
2019-03-03T07:53:33.506Z,100145.99
2019-03-03T07:56:03.071Z,100148.42
2019-03-03T07:58:32.591Z,100149.73
2019-03-03T08:01:02.016Z,100147.23
2019-03-03T08:03:31.480Z,100133.26
2019-03-03T08:06:00.977Z,100138.85
2019-03-03T08:08:33.545Z,100143.69
2019-03-03T08:11:02.981Z,100142.83
2019-03-03T08:13:32.427Z,100143.69
2019-03-03T08:16:01.859Z,100142.88
2019-03-03T08:18:31.273Z,100144.87
2019-03-03T08:21:00.815Z,100147.16
2019-03-03T08:23:30.296Z,100145.28
2019-03-03T08:25:59.793Z,100143.69
2019-03-03T08:28:29.204Z,100146.17
2019-03-03T08:30:58.705Z,100150.09
2019-03-03T08:33:28.118Z,100151.20
2019-03-03T08:35:57.555Z,100156.42
2019-03-03T08:38:27.027Z,100162.94
2019-03-03T08:40:56.463Z,100158.38
2019-03-03T08:43:36.235Z,100164.48
2019-03-03T08:46:10.301Z,100162.17
2019-03-03T08:48:47.311Z,100154.73
2019-03-03T08:51:20.788Z,100143.26
2019-03-03T08:54:03.654Z,100155.10
2019-03-03T08:56:35.876Z,100160.83
2019-03-03T08:59:06.943Z,100153.67
2019-03-03T09:01:57.645Z,100153.97
2019-03-03T09:04:44.610Z,100158.01
2019-03-03T09:07:21.655Z,100157.08
2019-03-03T09:09:58.748Z,100158.30
2019-03-03T09:12:32.598Z,100170.17
2019-03-03T09:15:15.477Z,100173.45
2019-03-03T09:17:48.978Z,100176.98
2019-03-03T09:20:20.047Z,100186.20
2019-03-03T09:22:51.205Z,100170.13
2019-03-03T09:25:28.587Z,100173.78
2019-03-03T09:28:15.628Z,100167.29
2019-03-03T09:30:52.586Z,100173.81
2019-03-03T09:33:32.499Z,100168.95
2019-03-03T09:36:03.563Z,100172.36
2019-03-03T09:38:46.991Z,100172.80
2019-03-03T09:41:33.084Z,100179.38
2019-03-03T09:44:23.636Z,100174.05
2019-03-03T09:47:00.642Z,100176.44
2019-03-03T09:49:31.702Z,100179.84
2019-03-03T09:52:11.753Z,100189.80
2019-03-03T09:54:45.799Z,100189.92
2019-03-03T09:57:33.319Z,100184.14
2019-03-03T10:00:05.063Z,100194.20
2019-03-03T10:02:42.175Z,100197.86
2019-03-03T10:05:14.992Z,100199.00
2019-03-03T10:07:55.410Z,100198.49
2019-03-03T10:10:32.277Z,100193.63
2019-03-03T10:13:18.747Z,100199.92
2019-03-03T10:15:49.814Z,100196.52
2019-03-03T10:18:23.746Z,100201.48
2019-03-03T10:21:09.975Z,100190.09
2019-03-03T10:23:56.533Z,100185.11
2019-03-03T10:26:27.787Z,100185.11
2019-03-03T10:29:01.864Z,100185.66
2019-03-03T10:31:43.134Z,100176.65
2019-03-03T10:34:14.240Z,100181.87
2019-03-03T10:37:01.797Z,100176.97
2019-03-03T10:39:34.038Z,100173.59
2019-03-03T10:42:23.451Z,100180.05
2019-03-03T10:45:03.530Z,100168.56
2019-03-03T10:47:37.876Z,100173.72
2019-03-03T10:50:13.520Z,100170.95
2019-03-03T10:52:44.727Z,100169.14
2019-03-03T10:55:16.034Z,100167.20
2019-03-03T10:57:50.224Z,100159.88
2019-03-03T11:00:38.919Z,100165.41
2019-03-03T11:03:26.229Z,100158.95
2019-03-03T11:06:15.812Z,100155.18
2019-03-03T11:08:51.091Z,100154.45
2019-03-03T11:11:24.955Z,100151.77
2019-03-03T11:14:15.393Z,100151.13
2019-03-03T11:16:49.566Z,100145.33
2019-03-03T11:19:32.545Z,100145.71
2019-03-03T11:22:15.628Z,100147.08
2019-03-03T11:24:46.923Z,100145.05
2019-03-03T11:27:20.625Z,100142.50
2019-03-03T11:29:54.833Z,100150.13
2019-03-03T11:32:42.711Z,100148.30
2019-03-03T11:35:20.058Z,100149.67
2019-03-03T11:37:51.324Z,100144.03
2019-03-03T11:40:25.241Z,100144.32
2019-03-03T11:43:05.310Z,100147.06
2019-03-03T11:45:48.840Z,100142.22
2019-03-03T11:48:36.542Z,100139.02
2019-03-03T11:51:13.823Z,100132.62
2019-03-03T11:53:48.744Z,100131.91
2019-03-03T11:56:35.855Z,100125.76
2019-03-03T11:59:07.277Z,100126.34
2019-03-03T12:01:45.809Z,100117.46
2019-03-03T12:04:35.248Z,100119.28
2019-03-03T12:07:22.676Z,100116.50
2019-03-03T12:10:02.556Z,100106.23
2019-03-03T12:12:33.710Z,100107.80
2019-03-03T12:15:06.592Z,100115.78
2019-03-03T12:17:43.950Z,100108.47
2019-03-03T12:20:33.399Z,100109.39
2019-03-03T12:23:21.289Z,100099.55
2019-03-03T12:25:55.343Z,100102.16
2019-03-03T12:28:42.975Z,100100.12
2019-03-03T12:34:22.203Z,100097.75
2019-03-03T12:37:09.390Z,100091.36
2019-03-03T12:39:40.477Z,100095.62
2019-03-03T12:42:23.540Z,100091.80
2019-03-03T12:44:57.315Z,100087.16
2019-03-03T12:47:28.453Z,100086.13
2019-03-03T12:50:05.591Z,100079.67
2019-03-03T12:52:36.725Z,100075.05
2019-03-03T12:55:27.814Z,100074.45
2019-03-03T12:58:17.193Z,100069.23
2019-03-03T13:00:53.811Z,100064.80
2019-03-03T13:03:41.161Z,100062.77
2019-03-03T13:06:12.231Z,100053.78
2019-03-03T13:08:59.647Z,100061.47
2019-03-03T13:11:44.353Z,100047.70
2019-03-03T13:14:18.620Z,100047.25
2019-03-03T13:16:52.752Z,100041.88
2019-03-03T13:19:39.748Z,100044.88
2019-03-03T13:22:10.948Z,100039.07
2019-03-03T13:24:56.782Z,100037.91
2019-03-03T13:27:27.839Z,100032.48
2019-03-03T13:29:58.993Z,100037.77
2019-03-03T13:32:34.689Z,100027.84
2019-03-03T13:35:13.673Z,100022.03
2019-03-03T13:38:01.037Z,100031.06
2019-03-03T13:40:41.278Z,100026.50
2019-03-03T13:43:10.697Z,100019.05
2019-03-03T13:45:40.216Z,100021.80
2019-03-03T13:48:11.297Z,100014.84
2019-03-03T13:50:40.819Z,100007.63
2019-03-03T13:53:11.342Z,100012.52
2019-03-03T13:55:43.878Z,100003.88
2019-03-03T13:58:13.376Z,100001.68
2019-03-03T14:00:44.251Z,99994.11
2019-03-03T14:03:14.104Z,99994.63
2019-03-03T14:05:45.720Z,99990.88
2019-03-03T14:08:15.406Z,99989.64
2019-03-03T14:10:44.996Z,99985.80
2019-03-03T14:13:17.254Z,99989.71
2019-03-03T14:15:46.775Z,99988.98
2019-03-03T14:18:16.272Z,99988.02
2019-03-03T14:20:45.756Z,99979.31
2019-03-03T14:23:15.257Z,99979.31
2019-03-03T14:25:44.764Z,99981.70
2019-03-03T14:28:14.357Z,99978.44
2019-03-03T14:30:43.867Z,99978.95
2019-03-03T14:33:13.400Z,99973.98
2019-03-03T14:35:43.259Z,99979.85
2019-03-03T14:38:12.721Z,99972.95
2019-03-03T14:40:42.213Z,99966.86
2019-03-03T14:43:11.730Z,99968.09
2019-03-03T14:45:43.081Z,99963.39
2019-03-03T14:48:12.575Z,99948.66
2019-03-03T14:50:42.085Z,99944.09
2019-03-03T14:53:11.493Z,99954.16
2019-03-03T14:55:40.947Z,99949.95
2019-03-03T14:58:13.407Z,99943.70
2019-03-03T15:00:46.087Z,99937.28
2019-03-03T15:03:15.565Z,99943.10
2019-03-03T15:05:46.311Z,99934.67
2019-03-03T15:08:15.899Z,99934.78
2019-03-03T15:10:47.495Z,99925.53
2019-03-03T15:13:17.087Z,99934.38
2019-03-03T15:15:49.342Z,99928.00
2019-03-03T15:18:18.894Z,99926.88
2019-03-03T15:20:48.322Z,99933.08
2019-03-03T15:23:19.496Z,99919.16
2019-03-03T15:25:49.263Z,99924.97
2019-03-03T15:28:18.790Z,99916.77
2019-03-03T15:30:48.372Z,99918.92
2019-03-03T15:33:17.804Z,99910.08
2019-03-03T15:35:47.232Z,99909.97
2019-03-03T15:38:18.014Z,99911.46
2019-03-03T15:40:47.559Z,99911.27
2019-03-03T15:43:17.140Z,99910.11
2019-03-03T15:45:46.574Z,99909.89
2019-03-03T15:48:16.068Z,99913.03
2019-03-03T15:50:47.369Z,99904.41
2019-03-03T15:53:17.873Z,99902.98
2019-03-03T15:55:47.353Z,99901.42
2019-03-03T15:58:16.785Z,99905.72
2019-03-03T16:00:46.264Z,99901.42
2019-03-03T16:03:15.842Z,99894.22
2019-03-03T16:05:46.367Z,99888.69
2019-03-03T16:08:15.959Z,99892.16
2019-03-03T16:10:45.800Z,99892.23
2019-03-03T16:13:15.312Z,99883.73
2019-03-03T16:15:44.799Z,99882.13
2019-03-03T16:18:14.482Z,99887.08
2019-03-03T16:20:44.859Z,99884.33
2019-03-03T16:23:14.499Z,99879.77
2019-03-03T16:25:44.079Z,99876.33
2019-03-03T16:28:13.659Z,99867.42
2019-03-03T16:30:43.086Z,99864.81
2019-03-03T16:33:20.274Z,99863.16
2019-03-03T16:35:43.643Z,99855.55
2019-03-03T16:38:14.613Z,99846.33
2019-03-03T16:40:46.087Z,99846.33
2019-03-03T16:43:18.046Z,99851.92
2019-03-03T16:45:51.402Z,99850.33
2019-03-03T16:48:20.832Z,99848.27
2019-03-03T16:50:50.363Z,99842.05
2019-03-03T16:53:19.862Z,99843.20
2019-03-03T16:55:49.583Z,99845.89
2019-03-03T16:58:20.522Z,99844.84
2019-03-03T17:00:53.496Z,99854.25
2019-03-03T17:03:23.066Z,99844.14
2019-03-03T17:05:52.506Z,99844.21
2019-03-03T17:08:22.012Z,99834.41
2019-03-03T17:10:51.537Z,99830.00
2019-03-03T17:13:20.953Z,99834.29
2019-03-03T17:15:50.727Z,99827.76
2019-03-03T17:18:20.151Z,99835.22
2019-03-03T17:20:49.586Z,99825.48
2019-03-03T17:23:19.078Z,99817.91
2019-03-03T17:25:48.512Z,99818.70
2019-03-03T17:28:17.957Z,99824.52
2019-03-03T17:30:49.159Z,99824.52
2019-03-03T17:33:20.142Z,99823.98
2019-03-03T17:35:49.548Z,99818.32
2019-03-03T17:38:19.146Z,99821.56
2019-03-03T17:40:48.569Z,99816.38
2019-03-03T17:43:19.493Z,99810.27
2019-03-03T17:45:48.912Z,99812.72
2019-03-03T17:48:18.314Z,99817.80
2019-03-03T17:50:47.829Z,99814.29
2019-03-03T17:53:17.323Z,99813.77
2019-03-03T17:55:48.412Z,99810.00
2019-03-03T17:58:17.913Z,99804.55
2019-03-03T18:00:48.287Z,99800.11
2019-03-03T18:03:17.847Z,99795.63
2019-03-03T18:05:47.283Z,99799.88
2019-03-03T18:08:16.773Z,99792.72
2019-03-03T18:10:47.294Z,99787.75
2019-03-03T18:13:16.703Z,99788.05
2019-03-03T18:15:46.235Z,99785.52
2019-03-03T18:18:17.845Z,99784.81
2019-03-03T18:20:47.288Z,99774.69
2019-03-03T18:23:16.749Z,99776.22
2019-03-03T18:25:48.932Z,99768.53
2019-03-03T18:28:20.011Z,99773.45
2019-03-03T18:30:50.757Z,99766.17
2019-03-03T18:33:20.380Z,99759.39
2019-03-03T18:35:49.987Z,99762.08
2019-03-03T18:38:20.951Z,99757.16
2019-03-03T18:40:50.367Z,99755.38
2019-03-03T18:43:20.761Z,99748.57
2019-03-03T18:45:50.283Z,99740.58
2019-03-03T18:48:19.695Z,99745.66
2019-03-03T18:50:49.228Z,99735.81
2019-03-03T18:53:20.145Z,99735.58
2019-03-03T18:55:49.659Z,99737.29
2019-03-03T18:58:19.166Z,99727.09
2019-03-03T19:00:48.734Z,99726.06
2019-03-03T19:03:18.324Z,99717.85
2019-03-03T19:05:55.361Z,99703.08
2019-03-03T19:08:19.192Z,99707.33
2019-03-03T19:10:48.772Z,99710.02
2019-03-03T19:13:18.304Z,99710.02
2019-03-03T19:15:47.712Z,99712.75
2019-03-03T19:18:17.310Z,99708.75
2019-03-03T19:20:46.768Z,99710.64
2019-03-03T19:23:17.781Z,99711.41
2019-03-03T19:25:47.327Z,99712.08
2019-03-03T19:28:16.816Z,99701.58
2019-03-03T19:30:46.412Z,99701.58
2019-03-03T19:33:24.703Z,99690.73
2019-03-03T19:35:54.212Z,99683.91
2019-03-03T19:38:23.820Z,99683.91
2019-03-03T19:40:54.141Z,99692.90
2019-03-03T19:43:23.890Z,99678.08
2019-03-03T19:46:02.312Z,99678.08
2019-03-03T19:48:31.900Z,99680.69
2019-03-03T19:51:03.260Z,99666.61
2019-03-03T19:53:34.374Z,99666.61
2019-03-03T19:56:03.895Z,99658.61
2019-03-03T19:58:33.406Z,99658.61
2019-03-03T20:01:04.329Z,99664.23
2019-03-03T20:03:33.915Z,99653.33
2019-03-03T20:06:03.568Z,99661.22
2019-03-03T20:08:33.093Z,99636.34
2019-03-03T20:11:02.648Z,99636.34
2019-03-03T20:13:32.311Z,99636.80
2019-03-03T20:16:01.783Z,99640.31
2019-03-03T20:18:31.364Z,99641.86
2019-03-03T20:21:01.381Z,99629.33
2019-03-03T20:23:30.899Z,99629.33
2019-03-03T20:26:00.469Z,99627.65
2019-03-03T20:28:31.733Z,99615.73
2019-03-03T20:31:01.290Z,99615.73
2019-03-03T20:33:33.580Z,99607.28
2019-03-03T20:36:05.865Z,99605.97
2019-03-03T20:38:35.454Z,99598.50
2019-03-03T20:41:05.215Z,99594.90
2019-03-03T20:43:34.773Z,99581.38
2019-03-03T20:46:05.558Z,99573.92
2019-03-03T20:48:44.045Z,99573.92
2019-03-03T20:51:15.167Z,99569.02
2019-03-03T20:53:44.919Z,99558.77
2019-03-03T20:56:15.499Z,99548.83
2019-03-03T20:58:44.988Z,99548.83
2019-03-03T21:01:14.419Z,99548.83
2019-03-03T21:03:43.832Z,99542.30
2019-03-03T21:06:13.381Z,99539.03
2019-03-03T21:08:42.764Z,99539.03
2019-03-03T21:11:12.206Z,99533.41
2019-03-03T21:13:41.654Z,99523.59
2019-03-03T21:16:11.069Z,99527.34
2019-03-03T21:18:40.530Z,99527.34
2019-03-03T21:21:09.945Z,99536.48
2019-03-03T21:23:40.925Z,99520.74
2019-03-03T21:26:10.330Z,99520.74
2019-03-03T21:28:39.839Z,99536.73
2019-03-03T21:31:09.285Z,99536.73
2019-03-03T21:33:39.168Z,99519.39
2019-03-03T21:36:10.158Z,99516.78
2019-03-03T21:38:39.568Z,99519.16
2019-03-03T21:41:09.077Z,99507.34
2019-03-03T21:43:38.504Z,99507.34
2019-03-03T21:46:08.552Z,99499.73
2019-03-03T21:48:38.331Z,99499.73
2019-03-03T21:51:08.920Z,99497.75
2019-03-03T21:53:38.365Z,99497.75
2019-03-03T21:56:07.910Z,99500.89
2019-03-03T21:58:37.418Z,99492.28
2019-03-03T22:01:07.840Z,99488.61
2019-03-03T22:03:37.528Z,99488.61
2019-03-03T22:06:07.497Z,99472.33
2019-03-03T22:08:36.930Z,99473.85
2019-03-03T22:11:06.360Z,99481.77
2019-03-03T22:13:35.799Z,99476.55
2019-03-03T22:16:05.272Z,99473.85
2019-03-03T22:18:34.722Z,99474.02
2019-03-03T22:21:07.373Z,99466.72
2019-03-03T22:23:36.790Z,99474.25
2019-03-03T22:26:06.223Z,99481.52
2019-03-03T22:28:36.458Z,99485.06
2019-03-03T22:31:06.020Z,99470.34
2019-03-03T22:33:38.574Z,99459.94
2019-03-03T22:36:09.709Z,99467.86
2019-03-03T22:38:39.151Z,99464.35
2019-03-03T22:41:08.571Z,99463.05
2019-03-03T22:43:38.003Z,99463.88
2019-03-03T22:46:10.827Z,99450.08
2019-03-03T22:48:40.546Z,99448.53
2019-03-03T22:51:11.769Z,99446.09
2019-03-03T22:53:42.719Z,99448.91
2019-03-03T22:56:12.699Z,99435.14
2019-03-03T22:58:44.838Z,99443.67
2019-03-03T23:01:18.077Z,99438.45
2019-03-03T23:04:08.739Z,99433.47
2019-03-03T23:06:43.962Z,99419.97
2019-03-03T23:09:19.229Z,99409.04
2019-03-03T23:12:07.488Z,99403.53
2019-03-03T23:15:06.422Z,99412.69
2019-03-03T23:17:41.971Z,99406.84
2019-03-03T23:20:23.811Z,99396.06
2019-03-03T23:23:30.785Z,99391.40
2019-03-03T23:26:00.271Z,99379.12
2019-03-03T23:28:30.815Z,99384.67
2019-03-03T23:31:00.265Z,99383.45
2019-03-03T23:33:29.672Z,99379.75
2019-03-03T23:36:05.817Z,99374.93
2019-03-03T23:38:34.454Z,99371.15
2019-03-03T23:41:04.035Z,99378.45
2019-03-03T23:43:34.999Z,99369.71
2019-03-03T23:46:04.402Z,99362.50
2019-03-03T23:48:34.043Z,99362.67
2019-03-03T23:51:03.523Z,99352.45
2019-03-03T23:53:33.129Z,99344.70
2019-03-03T23:56:02.604Z,99337.13
2019-03-03T23:58:32.039Z,99323.92
